createdAt,value
2022-10-20T00:04:29.984Z,100108.72
2022-10-20T00:09:32.894Z,100098.34
2022-10-20T00:14:35.905Z,100088.56
2022-10-20T00:19:40.170Z,100090.28
2022-10-20T00:24:43.548Z,100086.38
2022-10-20T00:29:49.020Z,100080.91
2022-10-20T00:34:53.252Z,100078.09
2022-10-20T00:39:56.132Z,100074.72
2022-10-20T00:45:01.255Z,100060.06
2022-10-20T00:50:09.837Z,100067.84
2022-10-20T00:55:15.674Z,100070.81
2022-10-20T01:00:19.015Z,100071.88
2022-10-20T01:05:23.623Z,100055.56
2022-10-20T01:10:30.284Z,100041.66
2022-10-20T01:15:42.280Z,100037.34
2022-10-20T01:21:09.960Z,100029.91
2022-10-20T01:26:51.321Z,100019.63
2022-10-20T01:32:06.095Z,100008.19
2022-10-20T01:37:28.178Z,99998.88
2022-10-20T01:42:40.670Z,99994.13
2022-10-20T01:47:47.730Z,99995.34
2022-10-20T01:52:50.699Z,99978.41
2022-10-20T01:58:13.917Z,99975.44
2022-10-20T02:03:36.340Z,99957.25
2022-10-20T02:08:45.091Z,99941.91
2022-10-20T02:13:49.309Z,99932.06
2022-10-20T02:18:54.030Z,99928.22
2022-10-20T02:24:03.752Z,99908.41
2022-10-20T02:29:14.962Z,99902.84
2022-10-20T02:34:19.523Z,99893.75
2022-10-20T02:39:22.505Z,99888.63
2022-10-20T02:44:25.547Z,99891.81
2022-10-20T02:49:29.842Z,99884.56
2022-10-20T02:54:32.935Z,99885.38
2022-10-20T02:59:35.796Z,99878.59
2022-10-20T03:04:40.073Z,99877.47
2022-10-20T03:09:44.200Z,99882.44
2022-10-20T03:14:47.186Z,99868.53
2022-10-20T03:19:51.448Z,99868.81
2022-10-20T03:24:54.327Z,99868.72
2022-10-20T03:29:57.233Z,99868.53
2022-10-20T03:35:01.480Z,99853.81
2022-10-20T03:40:04.720Z,99866.34
2022-10-20T03:45:09.187Z,99860.34
2022-10-20T03:50:13.450Z,99862.69
2022-10-20T03:55:16.708Z,99869.63
2022-10-20T04:00:20.042Z,99853.84
2022-10-20T04:05:24.504Z,99853.72
2022-10-20T04:10:27.634Z,99854.53
2022-10-20T04:15:30.543Z,99848.69
2022-10-20T04:20:34.831Z,99834.19
2022-10-20T04:25:47.575Z,99843.72
2022-10-20T04:30:50.513Z,99837.47
2022-10-20T04:35:59.475Z,99831.41
2022-10-20T04:41:04.421Z,99821.88
2022-10-20T04:46:09.012Z,99816.19
2022-10-20T04:51:15.695Z,99818.38
2022-10-20T04:56:20.974Z,99799.03
2022-10-20T05:01:25.813Z,99800.56
2022-10-20T05:06:32.277Z,99786.53
2022-10-20T05:11:36.475Z,99785.03
2022-10-20T05:16:39.502Z,99775.63
2022-10-20T05:21:44.902Z,99770.72
2022-10-20T05:26:47.780Z,99772.63
2022-10-20T05:31:50.697Z,99774.69
2022-10-20T05:36:55.243Z,99767.78
2022-10-20T05:41:58.119Z,99757.56
2022-10-20T05:47:01.330Z,99759.56
2022-10-20T05:52:05.905Z,99761.53
2022-10-20T05:57:08.827Z,99756.78
2022-10-20T06:02:12.684Z,99772.00
2022-10-20T06:07:16.924Z,99776.91
2022-10-20T06:12:19.971Z,99777.19
2022-10-20T06:17:22.867Z,99785.25
2022-10-20T06:22:27.211Z,99782.91
2022-10-20T06:27:30.124Z,99775.88
2022-10-20T06:32:33.047Z,99785.00
2022-10-20T06:37:37.297Z,99783.22
2022-10-20T06:42:40.267Z,99780.47
2022-10-20T06:47:43.235Z,99783.91
2022-10-20T06:52:47.492Z,99796.16
2022-10-20T06:57:50.405Z,99803.81
2022-10-20T07:02:53.755Z,99793.50
2022-10-20T07:07:58.016Z,99791.25
2022-10-20T07:13:00.951Z,99787.59
2022-10-20T07:18:03.918Z,99784.53
2022-10-20T07:23:08.171Z,99780.63
2022-10-20T07:28:11.070Z,99776.28
2022-10-20T07:33:13.949Z,99764.16
2022-10-20T07:38:18.267Z,99764.56
2022-10-20T07:43:21.185Z,99759.41
2022-10-20T07:48:24.113Z,99760.53
2022-10-20T07:53:28.380Z,99750.03
2022-10-20T07:58:31.330Z,99757.63
2022-10-20T08:03:34.557Z,99739.59
2022-10-20T08:08:39.363Z,99743.66
2022-10-20T08:13:43.012Z,99737.22
2022-10-20T08:24:04.191Z,99727.19
2022-10-20T08:29:07.058Z,99709.47
2022-10-20T08:34:10.065Z,99705.66
2022-10-20T08:39:14.441Z,99696.81
2022-10-20T08:44:21.061Z,99697.81
2022-10-20T08:49:27.858Z,99692.16
2022-10-20T08:54:35.460Z,99688.59
2022-10-20T08:59:39.994Z,99686.44
2022-10-20T09:04:45.893Z,99678.38
2022-10-20T09:09:50.459Z,99668.91
2022-10-20T09:14:53.443Z,99663.59
2022-10-20T09:19:59.185Z,99658.75
2022-10-20T09:25:03.501Z,99652.38
2022-10-20T09:30:16.846Z,99649.19
2022-10-20T09:35:26.779Z,99634.41
2022-10-20T09:40:31.954Z,99623.69
2022-10-20T09:45:36.060Z,99623.66
2022-10-20T09:50:41.658Z,99608.38
2022-10-20T09:55:50.361Z,99607.69
2022-10-20T10:01:00.275Z,99608.44
2022-10-20T10:06:21.684Z,99606.63
2022-10-20T10:11:30.254Z,99600.56
2022-10-20T10:16:41.920Z,99591.38
2022-10-20T10:21:47.864Z,99593.53
2022-10-20T10:26:55.727Z,99586.50
2022-10-20T10:32:01.878Z,99580.53
2022-10-20T10:37:04.960Z,99571.81
2022-10-20T10:42:27.624Z,99567.97
2022-10-20T10:47:47.438Z,99562.44
2022-10-20T10:53:00.184Z,99551.94
2022-10-20T10:58:11.878Z,99549.31
2022-10-20T11:03:36.340Z,99532.03
2022-10-20T11:09:00.977Z,99526.94
2022-10-20T11:14:16.559Z,99530.59
2022-10-20T11:19:50.838Z,99524.13
2022-10-20T11:25:03.438Z,99528.25
2022-10-20T11:30:16.782Z,99524.94
2022-10-20T11:35:32.603Z,99498.75
2022-10-20T11:40:40.620Z,99515.28
2022-10-20T11:45:52.108Z,99498.16
2022-10-20T11:51:15.098Z,99491.59
2022-10-20T11:56:49.127Z,99492.88
2022-10-20T12:02:16.137Z,99489.72
2022-10-20T12:07:54.139Z,99482.53
2022-10-20T12:13:17.301Z,99470.31
2022-10-20T12:18:27.504Z,99472.28
2022-10-20T12:24:02.865Z,99467.88
2022-10-20T12:30:02.826Z,99462.25
2022-10-20T12:35:42.021Z,99444.59
2022-10-20T12:40:49.665Z,99446.66
2022-10-20T12:45:53.065Z,99431.63
2022-10-20T12:51:04.975Z,99422.94
2022-10-20T12:56:09.921Z,99438.25
2022-10-20T13:01:13.788Z,99432.00
2022-10-20T13:06:43.865Z,99420.75
2022-10-20T13:11:57.134Z,99427.69
2022-10-20T13:17:06.064Z,99424.91
2022-10-20T13:22:45.321Z,99430.03
2022-10-20T13:27:51.400Z,99412.34
2022-10-20T13:33:33.190Z,99400.38
2022-10-20T13:38:33.302Z,99388.59
2022-10-20T13:43:46.356Z,99385.91
2022-10-20T13:49:05.381Z,99387.50
2022-10-20T13:54:08.685Z,99388.75
2022-10-20T14:04:33.403Z,99385.97
2022-10-20T14:09:38.601Z,99386.69
2022-10-20T14:14:46.371Z,99381.28
2022-10-20T14:19:49.443Z,99368.63
2022-10-20T14:24:54.815Z,99381.59
2022-10-20T14:30:00.873Z,99367.38
2022-10-20T14:35:16.553Z,99377.69
2022-10-20T14:40:22.619Z,99369.34
2022-10-20T14:45:28.480Z,99365.53
2022-10-20T14:50:36.630Z,99361.69
2022-10-20T14:55:39.509Z,99344.78
2022-10-20T15:00:43.806Z,99340.41
2022-10-20T15:05:48.430Z,99350.66
2022-10-20T15:10:51.482Z,99358.66
2022-10-20T15:15:56.227Z,99342.56
2022-10-20T15:20:59.130Z,99347.06
2022-10-20T15:26:05.992Z,99339.66
2022-10-20T15:31:20.844Z,99331.50
2022-10-20T15:36:28.795Z,99319.38
2022-10-20T15:41:34.322Z,99312.75
2022-10-20T15:46:38.598Z,99318.72
2022-10-20T15:51:43.827Z,99323.03
2022-10-20T15:56:46.877Z,99307.28
2022-10-20T16:01:51.351Z,99296.00
2022-10-20T16:06:57.647Z,99282.34
2022-10-20T16:12:02.129Z,99289.59
2022-10-20T16:17:06.390Z,99306.81
2022-10-20T16:22:09.581Z,99304.78
2022-10-20T16:27:13.160Z,99298.38
2022-10-20T16:32:17.475Z,99312.91
2022-10-20T16:37:20.414Z,99296.00
2022-10-20T16:42:23.311Z,99290.75
2022-10-20T16:47:27.616Z,99296.41
2022-10-20T16:52:30.571Z,99303.91
2022-10-20T16:57:38.872Z,99299.66
2022-10-20T17:02:44.909Z,99275.66
2022-10-20T17:07:47.823Z,99280.91
2022-10-20T17:17:59.943Z,99261.56
2022-10-20T17:23:02.870Z,99273.88
2022-10-20T17:28:06.130Z,99273.84
2022-10-20T17:33:10.919Z,99271.84
2022-10-20T17:38:14.052Z,99272.44
2022-10-20T17:43:17.322Z,99287.38
2022-10-20T17:48:21.692Z,99291.59
2022-10-20T17:53:24.577Z,99275.50
2022-10-20T17:58:27.683Z,99257.72
2022-10-20T18:03:32.173Z,99250.09
2022-10-20T18:08:35.169Z,99248.66
2022-10-20T18:13:38.896Z,99234.94
2022-10-20T18:18:44.131Z,99218.44
2022-10-20T18:23:48.407Z,99200.47
2022-10-20T18:28:51.703Z,99201.66
2022-10-20T18:34:02.675Z,99192.78
2022-10-20T18:39:09.522Z,99189.88
2022-10-20T18:44:14.930Z,99174.91
2022-10-20T18:49:21.557Z,99171.66
2022-10-20T18:54:24.569Z,99174.16
2022-10-20T18:59:27.572Z,99173.94
2022-10-20T19:04:31.848Z,99169.13
2022-10-20T19:09:34.948Z,99168.69
2022-10-20T19:14:37.885Z,99178.38
2022-10-20T19:19:44.168Z,99170.25
2022-10-20T19:24:47.288Z,99162.50
2022-10-20T19:29:50.168Z,99155.31
2022-10-20T19:34:54.517Z,99151.34
2022-10-20T19:39:57.428Z,99151.13
2022-10-20T19:45:00.365Z,99147.16
2022-10-20T19:50:04.907Z,99141.09
2022-10-20T19:55:08.136Z,99143.00
2022-10-20T20:00:12.087Z,99167.75
2022-10-20T20:05:16.512Z,99166.88
2022-10-20T20:10:19.650Z,99172.34
2022-10-20T20:15:22.587Z,99170.34
2022-10-20T20:20:26.837Z,99155.75
2022-10-20T20:25:29.764Z,99147.47
2022-10-20T20:30:33.341Z,99144.31
2022-10-20T20:35:37.596Z,99153.28
2022-10-20T20:40:44.338Z,99126.09
2022-10-20T20:45:47.421Z,99125.41
2022-10-20T20:50:55.952Z,99116.41
2022-10-20T20:56:01.443Z,99125.59
2022-10-20T21:01:05.838Z,99121.19
2022-10-20T21:06:11.799Z,99105.50
2022-10-20T21:11:18.002Z,99111.88
2022-10-20T21:16:23.695Z,99164.84
2022-10-20T21:21:29.838Z,99177.03
2022-10-20T21:26:33.318Z,99162.31
2022-10-20T21:31:36.997Z,99189.63
2022-10-20T21:36:41.319Z,99216.25
2022-10-20T21:41:45.059Z,99219.38
2022-10-20T21:46:50.072Z,99201.94
2022-10-20T21:51:55.981Z,99199.97
2022-10-20T21:56:59.291Z,99219.47
2022-10-20T22:02:02.855Z,99223.38
2022-10-20T22:07:07.152Z,99219.41
2022-10-20T22:12:10.027Z,99217.59
2022-10-20T22:17:14.126Z,99203.56
2022-10-20T22:22:18.463Z,99201.59
2022-10-20T22:27:41.514Z,99214.44
2022-10-20T22:32:44.245Z,99201.19
2022-10-20T22:37:48.552Z,99192.38
2022-10-20T22:42:51.470Z,99211.28
2022-10-20T22:47:54.377Z,99200.81
2022-10-20T22:52:58.663Z,99179.00
2022-10-20T22:58:01.782Z,99172.84
2022-10-20T23:03:04.892Z,99160.59
2022-10-20T23:08:09.207Z,99149.34
2022-10-20T23:13:12.093Z,99135.69
2022-10-20T23:18:14.990Z,99135.28
2022-10-20T23:23:19.252Z,99122.00
2022-10-20T23:28:22.390Z,99130.88
2022-10-20T23:33:25.291Z,99131.25
2022-10-20T23:38:29.536Z,99143.13
2022-10-20T23:43:32.496Z,99152.59
2022-10-20T23:48:35.798Z,99137.69
2022-10-20T23:53:40.084Z,99132.84
2022-10-20T23:58:43.002Z,99149.78
